sensor_id;sensor_type;location;lat;lon;timestamp;P1;durP1;ratioP1;P2;durP2;ratioP2
5955;SDS011;3004;48.080;11.600;2023-04-15T00:02:04;76.57;;;7.90;;
5955;SDS011;3004;48.080;11.600;2023-04-15T00:04:38;76.20;;;7.47;;
5955;SDS011;3004;48.080;11.600;2023-04-15T00:09:53;75.97;;;7.37;;
5955;SDS011;3004;48.080;11.600;2023-04-15T00:12:28;76.30;;;7.37;;
5955;SDS011;3004;48.080;11.600;2023-04-15T00:14:58;76.10;;;7.30;;
5955;SDS011;3004;48.080;11.600;2023-04-15T00:17:26;76.30;;;7.33;;
5955;SDS011;3004;48.080;11.600;2023-04-15T00:20:41;75.77;;;7.30;;
5955;SDS011;3004;48.080;11.600;2023-04-15T00:23:19;75.97;;;7.30;;
5955;SDS011;3004;48.080;11.600;2023-04-15T00:26:07;76.40;;;7.40;;
5955;SDS011;3004;48.080;11.600;2023-04-15T00:31:53;76.30;;;7.37;;
5955;SDS011;3004;48.080;11.600;2023-04-15T00:34:41;76.00;;;7.37;;
5955;SDS011;3004;48.080;11.600;2023-04-15T00:37:08;76.40;;;7.33;;
5955;SDS011;3004;48.080;11.600;2023-04-15T00:39:38;75.90;;;7.37;;
5955;SDS011;3004;48.080;11.600;2023-04-15T00:42:12;76.40;;;7.50;;
5955;SDS011;3004;48.080;11.600;2023-04-15T00:48:02;76.60;;;7.60;;
5955;SDS011;3004;48.080;11.600;2023-04-15T00:50:47;76.10;;;7.40;;
5955;SDS011;3004;48.080;11.600;2023-04-15T00:56:09;76.40;;;7.47;;
5955;SDS011;3004;48.080;11.600;2023-04-15T00:58:40;79.07;;;8.43;;
5955;SDS011;3004;48.080;11.600;2023-04-15T01:01:33;76.30;;;7.53;;
5955;SDS011;3004;48.080;11.600;2023-04-15T01:04:13;76.30;;;7.40;;
5955;SDS011;3004;48.080;11.600;2023-04-15T01:09:58;76.10;;;7.40;;
5955;SDS011;3004;48.080;11.600;2023-04-15T01:12:29;76.60;;;7.37;;
5955;SDS011;3004;48.080;11.600;2023-04-15T01:15:12;79.60;;;7.83;;
5955;SDS011;3004;48.080;11.600;2023-04-15T01:17:45;77.90;;;8.67;;
5955;SDS011;3004;48.080;11.600;2023-04-15T01:20:14;76.27;;;7.43;;
5955;SDS011;3004;48.080;11.600;2023-04-15T01:23:09;76.37;;;7.40;;
5955;SDS011;3004;48.080;11.600;2023-04-15T01:37:57;76.10;;;7.33;;
5955;SDS011;3004;48.080;11.600;2023-04-15T01:41:13;76.10;;;7.47;;
5955;SDS011;3004;48.080;11.600;2023-04-15T01:43:39;76.37;;;7.23;;
5955;SDS011;3004;48.080;11.600;2023-04-15T01:46:26;75.90;;;7.27;;
5955;SDS011;3004;48.080;11.600;2023-04-15T01:52:46;77.20;;;8.27;;
5955;SDS011;3004;48.080;11.600;2023-04-15T03:03:05;76.00;;;7.13;;
5955;SDS011;3004;48.080;11.600;2023-04-15T03:06:43;75.70;;;7.23;;
5955;SDS011;3004;48.080;11.600;2023-04-15T03:33:58;76.50;;;7.43;;
5955;SDS011;3004;48.080;11.600;2023-04-15T03:50:44;76.40;;;7.33;;
5955;SDS011;3004;48.080;11.600;2023-04-15T03:53:20;76.30;;;7.33;;
5955;SDS011;3004;48.080;11.600;2023-04-15T03:56:45;75.80;;;7.33;;
5955;SDS011;3004;48.080;11.600;2023-04-15T04:02:30;76.00;;;7.40;;
5955;SDS011;3004;48.080;11.600;2023-04-15T04:11:18;76.03;;;7.40;;
5955;SDS011;3004;48.080;11.600;2023-04-15T04:17:21;76.33;;;7.43;;
5955;SDS011;3004;48.080;11.600;2023-04-15T04:19:55;76.20;;;7.40;;
5955;SDS011;3004;48.080;11.600;2023-04-15T04:56:52;76.27;;;7.07;;
5955;SDS011;3004;48.080;11.600;2023-04-15T04:59:19;76.10;;;7.10;;
5955;SDS011;3004;48.080;11.600;2023-04-15T05:01:46;75.63;;;7.13;;
5955;SDS011;3004;48.080;11.600;2023-04-15T05:04:14;75.87;;;7.10;;
5955;SDS011;3004;48.080;11.600;2023-04-15T05:16:10;76.20;;;7.13;;
5955;SDS011;3004;48.080;11.600;2023-04-15T05:18:51;75.90;;;7.10;;
5955;SDS011;3004;48.080;11.600;2023-04-15T05:21:18;76.00;;;7.07;;
5955;SDS011;3004;48.080;11.600;2023-04-15T05:23:57;76.20;;;7.60;;
5955;SDS011;3004;48.080;11.600;2023-04-15T05:26:42;75.87;;;7.20;;
5955;SDS011;3004;48.080;11.600;2023-04-15T05:29:10;75.70;;;7.00;;
5955;SDS011;3004;48.080;11.600;2023-04-15T05:31:39;74.90;;;6.90;;
5955;SDS011;3004;48.080;11.600;2023-04-15T05:34:08;75.70;;;6.87;;
5955;SDS011;3004;48.080;11.600;2023-04-15T05:36:41;75.00;;;6.80;;
5955;SDS011;3004;48.080;11.600;2023-04-15T05:39:13;74.93;;;6.57;;
5955;SDS011;3004;48.080;11.600;2023-04-15T05:41:58;75.87;;;7.67;;
5955;SDS011;3004;48.080;11.600;2023-04-15T05:53:42;74.83;;;6.30;;
5955;SDS011;3004;48.080;11.600;2023-04-15T05:56:10;74.17;;;6.33;;
5955;SDS011;3004;48.080;11.600;2023-04-15T05:58:41;74.23;;;6.30;;
5955;SDS011;3004;48.080;11.600;2023-04-15T06:01:09;74.40;;;6.40;;
5955;SDS011;3004;48.080;11.600;2023-04-15T06:03:47;73.80;;;6.03;;
5955;SDS011;3004;48.080;11.600;2023-04-15T06:06:15;73.70;;;6.03;;
5955;SDS011;3004;48.080;11.600;2023-04-15T06:08:46;74.30;;;6.17;;
5955;SDS011;3004;48.080;11.600;2023-04-15T06:11:16;74.10;;;6.03;;
5955;SDS011;3004;48.080;11.600;2023-04-15T06:13:44;73.63;;;5.93;;
5955;SDS011;3004;48.080;11.600;2023-04-15T06:16:14;73.80;;;5.90;;
5955;SDS011;3004;48.080;11.600;2023-04-15T06:18:42;73.53;;;5.80;;
5955;SDS011;3004;48.080;11.600;2023-04-15T06:21:14;73.60;;;5.83;;
5955;SDS011;3004;48.080;11.600;2023-04-15T06:23:43;73.70;;;5.90;;
5955;SDS011;3004;48.080;11.600;2023-04-15T06:29:16;73.13;;;5.67;;
5955;SDS011;3004;48.080;11.600;2023-04-15T06:31:55;73.77;;;6.27;;
5955;SDS011;3004;48.080;11.600;2023-04-15T06:34:22;72.80;;;5.43;;
5955;SDS011;3004;48.080;11.600;2023-04-15T06:36:51;72.70;;;5.27;;
5955;SDS011;3004;48.080;11.600;2023-04-15T06:39:22;73.00;;;5.33;;
5955;SDS011;3004;48.080;11.600;2023-04-15T06:41:52;72.30;;;5.13;;
5955;SDS011;3004;48.080;11.600;2023-04-15T06:44:20;71.87;;;4.87;;
5955;SDS011;3004;48.080;11.600;2023-04-15T06:47:05;71.93;;;4.93;;
5955;SDS011;3004;48.080;11.600;2023-04-15T06:49:34;72.10;;;4.93;;
5955;SDS011;3004;48.080;11.600;2023-04-15T06:52:04;72.27;;;4.80;;
5955;SDS011;3004;48.080;11.600;2023-04-15T06:54:39;72.27;;;5.13;;
5955;SDS011;3004;48.080;11.600;2023-04-15T07:00:00;71.97;;;4.73;;
5955;SDS011;3004;48.080;11.600;2023-04-15T07:02:35;71.10;;;4.40;;
5955;SDS011;3004;48.080;11.600;2023-04-15T07:05:03;70.50;;;4.30;;
5955;SDS011;3004;48.080;11.600;2023-04-15T07:07:31;70.97;;;4.23;;
5955;SDS011;3004;48.080;11.600;2023-04-15T07:09:59;71.00;;;4.20;;
5955;SDS011;3004;48.080;11.600;2023-04-15T07:12:27;71.00;;;4.23;;
5955;SDS011;3004;48.080;11.600;2023-04-15T07:14:58;70.43;;;4.13;;
5955;SDS011;3004;48.080;11.600;2023-04-15T07:17:25;70.70;;;4.00;;
5955;SDS011;3004;48.080;11.600;2023-04-15T07:19:52;70.37;;;3.90;;
5955;SDS011;3004;48.080;11.600;2023-04-15T07:22:28;70.80;;;4.00;;
5955;SDS011;3004;48.080;11.600;2023-04-15T07:25:03;70.50;;;3.80;;
5955;SDS011;3004;48.080;11.600;2023-04-15T07:27:33;72.13;;;4.53;;
5955;SDS011;3004;48.080;11.600;2023-04-15T07:30:05;70.10;;;3.60;;
5955;SDS011;3004;48.080;11.600;2023-04-15T07:32:33;70.10;;;3.60;;
5955;SDS011;3004;48.080;11.600;2023-04-15T07:35:00;82.30;;;6.17;;
5955;SDS011;3004;48.080;11.600;2023-04-15T07:37:28;69.77;;;3.43;;
5955;SDS011;3004;48.080;11.600;2023-04-15T07:39:55;69.37;;;3.10;;
5955;SDS011;3004;48.080;11.600;2023-04-15T07:42:22;69.20;;;3.30;;
5955;SDS011;3004;48.080;11.600;2023-04-15T07:44:51;68.30;;;2.90;;
5955;SDS011;3004;48.080;11.600;2023-04-15T07:47:20;68.90;;;2.87;;
5955;SDS011;3004;48.080;11.600;2023-04-15T07:56:02;68.47;;;2.87;;
5955;SDS011;3004;48.080;11.600;2023-04-15T07:58:40;68.40;;;2.90;;
5955;SDS011;3004;48.080;11.600;2023-04-15T08:04:14;68.60;;;2.80;;
5955;SDS011;3004;48.080;11.600;2023-04-15T08:06:55;67.83;;;2.70;;
5955;SDS011;3004;48.080;11.600;2023-04-15T08:09:23;68.57;;;2.83;;
5955;SDS011;3004;48.080;11.600;2023-04-15T08:11:54;68.27;;;2.80;;
5955;SDS011;3004;48.080;11.600;2023-04-15T08:14:21;68.10;;;2.60;;
5955;SDS011;3004;48.080;11.600;2023-04-15T08:16:54;68.27;;;2.60;;
5955;SDS011;3004;48.080;11.600;2023-04-15T08:19:23;68.57;;;2.60;;
5955;SDS011;3004;48.080;11.600;2023-04-15T08:21:53;67.87;;;2.60;;
5955;SDS011;3004;48.080;11.600;2023-04-15T08:24:22;67.90;;;2.30;;
5955;SDS011;3004;48.080;11.600;2023-04-15T08:26:55;68.17;;;2.10;;
5955;SDS011;3004;48.080;11.600;2023-04-15T08:44:37;67.80;;;1.40;;
5955;SDS011;3004;48.080;11.600;2023-04-15T08:47:07;68.10;;;1.50;;
5955;SDS011;3004;48.080;11.600;2023-04-15T08:59:02;67.97;;;2.00;;
5955;SDS011;3004;48.080;11.600;2023-04-15T09:10:46;67.70;;;1.70;;
5955;SDS011;3004;48.080;11.600;2023-04-15T09:13:24;67.87;;;1.50;;
5955;SDS011;3004;48.080;11.600;2023-04-15T09:15:51;67.30;;;1.40;;
5955;SDS011;3004;48.080;11.600;2023-04-15T09:28:10;67.60;;;1.33;;
5955;SDS011;3004;48.080;11.600;2023-04-15T10:11:17;67.80;;;1.20;;
5955;SDS011;3004;48.080;11.600;2023-04-15T10:13:48;68.07;;;1.40;;
5955;SDS011;3004;48.080;11.600;2023-04-15T10:16:17;68.07;;;1.20;;
5955;SDS011;3004;48.080;11.600;2023-04-15T10:18:45;67.97;;;1.20;;
5955;SDS011;3004;48.080;11.600;2023-04-15T10:21:16;68.00;;;1.40;;
5955;SDS011;3004;48.080;11.600;2023-04-15T10:23:44;69.27;;;2.00;;
5955;SDS011;3004;48.080;11.600;2023-04-15T10:26:12;68.73;;;1.87;;
5955;SDS011;3004;48.080;11.600;2023-04-15T10:28:44;68.17;;;1.20;;
5955;SDS011;3004;48.080;11.600;2023-04-15T10:31:13;68.67;;;2.30;;
5955;SDS011;3004;48.080;11.600;2023-04-15T10:39:58;68.37;;;1.30;;
5955;SDS011;3004;48.080;11.600;2023-04-15T10:42:32;68.47;;;1.43;;
5955;SDS011;3004;48.080;11.600;2023-04-15T10:45:02;68.17;;;1.30;;
5955;SDS011;3004;48.080;11.600;2023-04-15T10:50:37;68.20;;;1.30;;
5955;SDS011;3004;48.080;11.600;2023-04-15T10:53:04;68.17;;;1.30;;
5955;SDS011;3004;48.080;11.600;2023-04-15T10:55:35;68.27;;;1.40;;
5955;SDS011;3004;48.080;11.600;2023-04-15T10:58:02;91.43;;;2.43;;
5955;SDS011;3004;48.080;11.600;2023-04-15T11:00:35;68.37;;;1.20;;
5955;SDS011;3004;48.080;11.600;2023-04-15T11:03:10;68.07;;;1.20;;
5955;SDS011;3004;48.080;11.600;2023-04-15T11:05:47;67.90;;;1.30;;
5955;SDS011;3004;48.080;11.600;2023-04-15T11:08:15;68.17;;;1.27;;
5955;SDS011;3004;48.080;11.600;2023-04-15T11:10:51;69.20;;;2.53;;
5955;SDS011;3004;48.080;11.600;2023-04-15T11:13:24;68.20;;;1.30;;
5955;SDS011;3004;48.080;11.600;2023-04-15T11:15:59;69.70;;;3.20;;
5955;SDS011;3004;48.080;11.600;2023-04-15T11:18:33;69.60;;;1.97;;
5955;SDS011;3004;48.080;11.600;2023-04-15T11:21:09;68.20;;;1.30;;
5955;SDS011;3004;48.080;11.600;2023-04-15T11:23:37;69.20;;;1.70;;
5955;SDS011;3004;48.080;11.600;2023-04-15T11:26:09;68.10;;;1.20;;
5955;SDS011;3004;48.080;11.600;2023-04-15T11:28:38;68.60;;;1.30;;
5955;SDS011;3004;48.080;11.600;2023-04-15T11:34:11;68.40;;;1.30;;
5955;SDS011;3004;48.080;11.600;2023-04-15T11:36:38;68.37;;;1.30;;
5955;SDS011;3004;48.080;11.600;2023-04-15T11:39:15;68.27;;;1.30;;
5955;SDS011;3004;48.080;11.600;2023-04-15T11:41:42;68.40;;;1.20;;
5955;SDS011;3004;48.080;11.600;2023-04-15T11:44:38;68.10;;;1.50;;
5955;SDS011;3004;48.080;11.600;2023-04-15T11:47:28;68.13;;;1.30;;
5955;SDS011;3004;48.080;11.600;2023-04-15T11:53:18;70.07;;;2.90;;
5955;SDS011;3004;48.080;11.600;2023-04-15T11:55:46;68.27;;;1.20;;
5955;SDS011;3004;48.080;11.600;2023-04-15T11:58:17;67.87;;;1.60;;
5955;SDS011;3004;48.080;11.600;2023-04-15T12:00:45;68.77;;;1.90;;
5955;SDS011;3004;48.080;11.600;2023-04-15T12:03:17;67.90;;;1.20;;
5955;SDS011;3004;48.080;11.600;2023-04-15T12:09:02;67.70;;;1.30;;
5955;SDS011;3004;48.080;11.600;2023-04-15T12:21:06;68.20;;;1.40;;
5955;SDS011;3004;48.080;11.600;2023-04-15T12:23:47;70.00;;;4.03;;
5955;SDS011;3004;48.080;11.600;2023-04-15T12:26:16;68.10;;;1.87;;
5955;SDS011;3004;48.080;11.600;2023-04-15T12:28:43;67.87;;;1.40;;
5955;SDS011;3004;48.080;11.600;2023-04-15T12:31:13;68.00;;;1.70;;
5955;SDS011;3004;48.080;11.600;2023-04-15T12:33:46;68.10;;;1.50;;
5955;SDS011;3004;48.080;11.600;2023-04-15T12:36:14;67.87;;;1.30;;
5955;SDS011;3004;48.080;11.600;2023-04-15T12:38:41;67.90;;;1.30;;
5955;SDS011;3004;48.080;11.600;2023-04-15T12:41:10;67.87;;;1.30;;
5955;SDS011;3004;48.080;11.600;2023-04-15T12:43:40;67.60;;;1.30;;
5955;SDS011;3004;48.080;11.600;2023-04-15T12:46:09;68.17;;;1.50;;
5955;SDS011;3004;48.080;11.600;2023-04-15T12:48:36;68.47;;;1.70;;
5955;SDS011;3004;48.080;11.600;2023-04-15T12:51:03;67.97;;;1.50;;
5955;SDS011;3004;48.080;11.600;2023-04-15T12:53:30;67.70;;;1.37;;
5955;SDS011;3004;48.080;11.600;2023-04-15T12:55:58;68.07;;;1.23;;
5955;SDS011;3004;48.080;11.600;2023-04-15T12:58:25;67.60;;;1.20;;
5955;SDS011;3004;48.080;11.600;2023-04-15T13:00:54;68.20;;;1.60;;
5955;SDS011;3004;48.080;11.600;2023-04-15T13:03:22;68.93;;;1.73;;
5955;SDS011;3004;48.080;11.600;2023-04-15T13:05:49;68.57;;;1.30;;
5955;SDS011;3004;48.080;11.600;2023-04-15T13:08:17;68.67;;;2.47;;
5955;SDS011;3004;48.080;11.600;2023-04-15T13:10:45;68.03;;;1.37;;
5955;SDS011;3004;48.080;11.600;2023-04-15T13:24:08;68.30;;;1.33;;
5955;SDS011;3004;48.080;11.600;2023-04-15T13:26:38;68.20;;;1.20;;
5955;SDS011;3004;48.080;11.600;2023-04-15T13:32:11;68.07;;;1.20;;
5955;SDS011;3004;48.080;11.600;2023-04-15T13:40:52;68.67;;;1.70;;
5955;SDS011;3004;48.080;11.600;2023-04-15T13:43:27;68.00;;;1.50;;
5955;SDS011;3004;48.080;11.600;2023-04-15T13:45:59;68.20;;;1.20;;
5955;SDS011;3004;48.080;11.600;2023-04-15T13:48:27;67.90;;;1.20;;
5955;SDS011;3004;48.080;11.600;2023-04-15T13:51:08;68.10;;;1.20;;
5955;SDS011;3004;48.080;11.600;2023-04-15T13:53:35;68.47;;;1.20;;
5955;SDS011;3004;48.080;11.600;2023-04-15T13:56:06;68.30;;;1.20;;
5955;SDS011;3004;48.080;11.600;2023-04-15T14:04:48;69.10;;;1.80;;
5955;SDS011;3004;48.080;11.600;2023-04-15T14:07:15;67.90;;;1.20;;
5955;SDS011;3004;48.080;11.600;2023-04-15T14:09:43;67.80;;;1.20;;
5955;SDS011;3004;48.080;11.600;2023-04-15T14:30:16;67.90;;;1.20;;
5955;SDS011;3004;48.080;11.600;2023-04-15T14:32:44;68.47;;;1.37;;
5955;SDS011;3004;48.080;11.600;2023-04-15T14:35:11;68.30;;;1.40;;
5955;SDS011;3004;48.080;11.600;2023-04-15T14:37:38;68.00;;;1.20;;
5955;SDS011;3004;48.080;11.600;2023-04-15T14:40:06;67.93;;;1.20;;
5955;SDS011;3004;48.080;11.600;2023-04-15T14:42:34;67.90;;;1.17;;
5955;SDS011;3004;48.080;11.600;2023-04-15T14:45:03;68.27;;;1.30;;
5955;SDS011;3004;48.080;11.600;2023-04-15T14:47:32;68.30;;;1.20;;
5955;SDS011;3004;48.080;11.600;2023-04-15T14:50:02;67.87;;;1.33;;
5955;SDS011;3004;48.080;11.600;2023-04-15T14:52:29;68.47;;;2.07;;
5955;SDS011;3004;48.080;11.600;2023-04-15T14:55:02;68.10;;;1.40;;
5955;SDS011;3004;48.080;11.600;2023-04-15T14:57:30;67.90;;;1.20;;
5955;SDS011;3004;48.080;11.600;2023-04-15T14:59:57;68.57;;;1.30;;
5955;SDS011;3004;48.080;11.600;2023-04-15T15:02:24;67.90;;;1.20;;
5955;SDS011;3004;48.080;11.600;2023-04-15T15:04:57;68.30;;;1.40;;
5955;SDS011;3004;48.080;11.600;2023-04-15T15:10:26;68.37;;;1.20;;
5955;SDS011;3004;48.080;11.600;2023-04-15T15:12:53;68.53;;;1.90;;
5955;SDS011;3004;48.080;11.600;2023-04-15T15:15:20;68.20;;;1.30;;
5955;SDS011;3004;48.080;11.600;2023-04-15T15:17:48;68.47;;;1.30;;
5955;SDS011;3004;48.080;11.600;2023-04-15T15:20:18;68.20;;;1.30;;
5955;SDS011;3004;48.080;11.600;2023-04-15T15:22:48;76.13;;;1.73;;
5955;SDS011;3004;48.080;11.600;2023-04-15T15:25:15;67.97;;;1.30;;
5955;SDS011;3004;48.080;11.600;2023-04-15T15:27:56;67.90;;;1.27;;
5955;SDS011;3004;48.080;11.600;2023-04-15T15:30:23;68.23;;;1.30;;
5955;SDS011;3004;48.080;11.600;2023-04-15T15:32:53;67.70;;;1.20;;
5955;SDS011;3004;48.080;11.600;2023-04-15T15:35:24;68.13;;;1.30;;
5955;SDS011;3004;48.080;11.600;2023-04-15T15:40:40;68.17;;;1.97;;
5955;SDS011;3004;48.080;11.600;2023-04-15T15:43:07;67.87;;;1.80;;
5955;SDS011;3004;48.080;11.600;2023-04-15T15:45:34;68.07;;;1.50;;
5955;SDS011;3004;48.080;11.600;2023-04-15T15:48:02;67.80;;;1.80;;
5955;SDS011;3004;48.080;11.600;2023-04-15T15:50:31;67.60;;;2.00;;
5955;SDS011;3004;48.080;11.600;2023-04-15T15:52:58;68.20;;;2.60;;
5955;SDS011;3004;48.080;11.600;2023-04-15T15:55:32;67.87;;;2.50;;
5955;SDS011;3004;48.080;11.600;2023-04-15T15:58:05;68.10;;;2.40;;
5955;SDS011;3004;48.080;11.600;2023-04-15T16:06:56;67.07;;;2.50;;
5955;SDS011;3004;48.080;11.600;2023-04-15T16:15:03;67.17;;;2.50;;
5955;SDS011;3004;48.080;11.600;2023-04-15T16:17:31;67.00;;;2.40;;
5955;SDS011;3004;48.080;11.600;2023-04-15T16:23:22;67.67;;;2.70;;
5955;SDS011;3004;48.080;11.600;2023-04-15T16:34:59;67.10;;;2.80;;
5955;SDS011;3004;48.080;11.600;2023-04-15T16:37:26;66.90;;;2.60;;
5955;SDS011;3004;48.080;11.600;2023-04-15T16:39:59;66.80;;;2.60;;
5955;SDS011;3004;48.080;11.600;2023-04-15T16:42:34;67.60;;;3.30;;
5955;SDS011;3004;48.080;11.600;2023-04-15T16:45:18;66.60;;;2.50;;
5955;SDS011;3004;48.080;11.600;2023-04-15T16:47:47;66.97;;;2.60;;
5955;SDS011;3004;48.080;11.600;2023-04-15T16:50:53;69.90;;;4.03;;
5955;SDS011;3004;48.080;11.600;2023-04-15T16:53:34;66.93;;;2.70;;
5955;SDS011;3004;48.080;11.600;2023-04-15T16:56:24;66.93;;;2.50;;
5955;SDS011;3004;48.080;11.600;2023-04-15T16:59:03;66.57;;;2.47;;
5955;SDS011;3004;48.080;11.600;2023-04-15T17:01:54;66.97;;;2.50;;
5955;SDS011;3004;48.080;11.600;2023-04-15T17:04:23;66.97;;;2.57;;
5955;SDS011;3004;48.080;11.600;2023-04-15T17:12:35;67.50;;;2.50;;
5955;SDS011;3004;48.080;11.600;2023-04-15T17:42:42;68.40;;;3.33;;
5955;SDS011;3004;48.080;11.600;2023-04-15T18:58:37;71.10;;;4.50;;
5955;SDS011;3004;48.080;11.600;2023-04-15T20:37:36;87.43;;;8.00;;
5955;SDS011;3004;48.080;11.600;2023-04-15T20:42:47;71.77;;;5.20;;
5955;SDS011;3004;48.080;11.600;2023-04-15T20:50:41;71.87;;;5.53;;
5955;SDS011;3004;48.080;11.600;2023-04-15T20:53:10;72.30;;;5.57;;
5955;SDS011;3004;48.080;11.600;2023-04-15T20:58:47;72.10;;;5.50;;
5955;SDS011;3004;48.080;11.600;2023-04-15T21:01:17;72.10;;;5.53;;
5955;SDS011;3004;48.080;11.600;2023-04-15T21:03:47;72.30;;;5.70;;
5955;SDS011;3004;48.080;11.600;2023-04-15T21:06:15;72.53;;;5.60;;
5955;SDS011;3004;48.080;11.600;2023-04-15T21:11:46;72.50;;;5.60;;
5955;SDS011;3004;48.080;11.600;2023-04-15T21:14:14;72.47;;;5.67;;
5955;SDS011;3004;48.080;11.600;2023-04-15T21:16:41;72.40;;;5.77;;
5955;SDS011;3004;48.080;11.600;2023-04-15T21:19:08;72.40;;;5.70;;
5955;SDS011;3004;48.080;11.600;2023-04-15T21:21:35;72.20;;;5.60;;
5955;SDS011;3004;48.080;11.600;2023-04-15T21:24:03;72.30;;;5.60;;
5955;SDS011;3004;48.080;11.600;2023-04-15T21:26:31;72.67;;;5.70;;
5955;SDS011;3004;48.080;11.600;2023-04-15T21:29:01;72.40;;;5.80;;
5955;SDS011;3004;48.080;11.600;2023-04-15T21:31:28;72.60;;;5.77;;
5955;SDS011;3004;48.080;11.600;2023-04-15T21:36:59;72.40;;;5.80;;
5955;SDS011;3004;48.080;11.600;2023-04-15T21:39:31;72.40;;;5.80;;
5955;SDS011;3004;48.080;11.600;2023-04-15T21:41:59;72.80;;;5.93;;
5955;SDS011;3004;48.080;11.600;2023-04-15T21:47:19;72.67;;;5.93;;
5955;SDS011;3004;48.080;11.600;2023-04-15T21:49:47;72.60;;;5.90;;
5955;SDS011;3004;48.080;11.600;2023-04-15T21:52:14;72.97;;;5.97;;
5955;SDS011;3004;48.080;11.600;2023-04-15T21:54:41;72.63;;;6.20;;
5955;SDS011;3004;48.080;11.600;2023-04-15T21:57:08;72.80;;;6.03;;
5955;SDS011;3004;48.080;11.600;2023-04-15T21:59:36;72.70;;;5.90;;
5955;SDS011;3004;48.080;11.600;2023-04-15T22:02:03;72.30;;;5.90;;
5955;SDS011;3004;48.080;11.600;2023-04-15T22:04:32;72.23;;;5.87;;
5955;SDS011;3004;48.080;11.600;2023-04-15T22:06:59;72.70;;;5.90;;
5955;SDS011;3004;48.080;11.600;2023-04-15T22:09:26;72.60;;;5.90;;
5955;SDS011;3004;48.080;11.600;2023-04-15T22:11:54;72.77;;;5.90;;
5955;SDS011;3004;48.080;11.600;2023-04-15T22:14:21;72.90;;;5.93;;
5955;SDS011;3004;48.080;11.600;2023-04-15T22:16:49;72.40;;;5.97;;
5955;SDS011;3004;48.080;11.600;2023-04-15T22:19:16;72.40;;;5.97;;
5955;SDS011;3004;48.080;11.600;2023-04-15T22:27:38;72.60;;;5.93;;
5955;SDS011;3004;48.080;11.600;2023-04-15T22:30:05;71.87;;;5.90;;
5955;SDS011;3004;48.080;11.600;2023-04-15T22:32:33;72.53;;;6.03;;
5955;SDS011;3004;48.080;11.600;2023-04-15T22:35:00;72.90;;;6.00;;
5955;SDS011;3004;48.080;11.600;2023-04-15T22:37:28;72.50;;;6.00;;
5955;SDS011;3004;48.080;11.600;2023-04-15T22:55:20;73.20;;;6.50;;
5955;SDS011;3004;48.080;11.600;2023-04-15T22:57:48;72.37;;;6.23;;
5955;SDS011;3004;48.080;11.600;2023-04-15T23:00:16;73.17;;;6.30;;
5955;SDS011;3004;48.080;11.600;2023-04-15T23:02:45;73.27;;;6.50;;
5955;SDS011;3004;48.080;11.600;2023-04-15T23:05:12;72.80;;;6.40;;
5955;SDS011;3004;48.080;11.600;2023-04-15T23:07:42;73.10;;;6.30;;
5955;SDS011;3004;48.080;11.600;2023-04-15T23:10:21;72.87;;;6.30;;
5955;SDS011;3004;48.080;11.600;2023-04-15T23:15:43;72.60;;;6.30;;
5955;SDS011;3004;48.080;11.600;2023-04-15T23:18:13;74.07;;;7.30;;
5955;SDS011;3004;48.080;11.600;2023-04-15T23:21:00;72.53;;;6.30;;
5955;SDS011;3004;48.080;11.600;2023-04-15T23:23:34;72.90;;;6.23;;
5955;SDS011;3004;48.080;11.600;2023-04-15T23:29:20;73.10;;;6.30;;
5955;SDS011;3004;48.080;11.600;2023-04-15T23:31:47;73.07;;;6.30;;
5955;SDS011;3004;48.080;11.600;2023-04-15T23:34:14;73.00;;;6.37;;
5955;SDS011;3004;48.080;11.600;2023-04-15T23:36:42;73.20;;;6.37;;
5955;SDS011;3004;48.080;11.600;2023-04-15T23:39:15;73.20;;;6.43;;
5955;SDS011;3004;48.080;11.600;2023-04-15T23:41:56;73.00;;;6.30;;
5955;SDS011;3004;48.080;11.600;2023-04-15T23:44:31;72.80;;;6.37;;
5955;SDS011;3004;48.080;11.600;2023-04-15T23:46:58;73.30;;;6.37;;
5955;SDS011;3004;48.080;11.600;2023-04-15T23:49:25;72.80;;;6.60;;
5955;SDS011;3004;48.080;11.600;2023-04-15T23:52:03;72.90;;;6.30;;
5955;SDS011;3004;48.080;11.600;2023-04-15T23:54:32;72.70;;;6.30;;
5955;SDS011;3004;48.080;11.600;2023-04-15T23:59:55;72.83;;;6.37;;
